createdAt,value
2023-04-27T00:02:09.526Z,7.13
2023-04-27T00:04:40.728Z,6.90
2023-04-27T00:07:08.663Z,8.50
2023-04-27T00:09:35.673Z,7.32
2023-04-27T00:12:02.384Z,8.70
2023-04-27T00:14:29.243Z,8.80
2023-04-27T00:16:56.048Z,7.03
2023-04-27T00:19:23.047Z,8.07
2023-04-27T00:21:49.812Z,8.27
2023-04-27T00:24:16.512Z,6.07
2023-04-27T00:26:44.938Z,10.70
2023-04-27T00:29:11.986Z,8.88
2023-04-27T00:31:43.871Z,11.13
2023-04-27T00:34:10.610Z,26.30
2023-04-27T00:36:37.642Z,6.63
2023-04-27T00:39:04.777Z,8.88
2023-04-27T00:41:31.740Z,8.68
2023-04-27T00:43:58.531Z,9.93
2023-04-27T00:46:27.704Z,9.10
2023-04-27T00:48:57.509Z,11.57
2023-04-27T00:51:28.241Z,10.43
2023-04-27T00:53:55.178Z,7.00
2023-04-27T00:56:22.122Z,7.95
2023-04-27T00:58:49.347Z,9.85
2023-04-27T01:01:16.814Z,6.53
2023-04-27T01:03:43.725Z,7.63
2023-04-27T01:06:10.918Z,8.50
2023-04-27T01:08:44.330Z,15.57
2023-04-27T01:11:11.272Z,12.80
2023-04-27T01:13:40.889Z,7.18
2023-04-27T01:16:08.442Z,9.68
2023-04-27T01:18:36.854Z,11.48
2023-04-27T01:21:05.806Z,10.00
2023-04-27T01:23:32.629Z,8.40
2023-04-27T01:26:02.084Z,19.55
2023-04-27T01:28:28.784Z,11.77
2023-04-27T01:30:56.101Z,8.13
2023-04-27T01:33:23.297Z,8.00
2023-04-27T01:35:50.630Z,7.65
2023-04-27T01:38:18.232Z,10.18
2023-04-27T01:40:44.952Z,12.07
2023-04-27T01:43:11.722Z,11.57
2023-04-27T01:45:38.355Z,13.20
2023-04-27T01:48:05.116Z,8.95
2023-04-27T01:50:31.956Z,15.85
2023-04-27T01:53:04.579Z,7.90
2023-04-27T01:55:31.370Z,9.02
2023-04-27T01:58:01.781Z,9.02
2023-04-27T02:00:32.305Z,12.82
2023-04-27T02:03:03.343Z,8.88
2023-04-27T02:05:36.239Z,16.75
2023-04-27T02:08:03.548Z,9.55
2023-04-27T02:10:32.648Z,13.73
2023-04-27T02:13:03.080Z,10.05
2023-04-27T02:15:36.013Z,12.15
2023-04-27T02:18:03.555Z,21.20
2023-04-27T02:20:30.360Z,14.38
2023-04-27T02:23:00.186Z,20.88
2023-04-27T02:28:10.817Z,8.20
2023-04-27T02:30:41.190Z,10.80
2023-04-27T02:33:07.995Z,16.73
2023-04-27T02:35:34.736Z,13.30
2023-04-27T02:38:01.832Z,8.23
2023-04-27T02:40:28.656Z,12.48
2023-04-27T02:42:57.807Z,15.40
2023-04-27T02:45:24.709Z,13.63
2023-04-27T02:47:51.751Z,8.45
2023-04-27T02:50:24.195Z,12.85
2023-04-27T02:52:53.834Z,15.93
2023-04-27T02:55:21.817Z,12.57
2023-04-27T02:57:49.145Z,11.10
2023-04-27T03:00:29.908Z,12.52
2023-04-27T03:02:56.904Z,15.20
2023-04-27T03:05:24.079Z,27.60
2023-04-27T03:07:50.787Z,13.93
2023-04-27T03:10:26.320Z,11.38
2023-04-27T03:13:03.172Z,10.70
2023-04-27T03:15:32.398Z,26.38
2023-04-27T03:18:01.877Z,11.60
2023-04-27T03:20:28.732Z,16.08
2023-04-27T03:22:55.612Z,14.07
2023-04-27T03:25:24.060Z,17.20
2023-04-27T03:27:53.829Z,16.35
2023-04-27T03:30:24.673Z,16.15
2023-04-27T03:35:34.358Z,16.88
2023-04-27T03:38:01.426Z,14.93
2023-04-27T03:40:28.264Z,14.30
2023-04-27T03:42:54.956Z,16.05
2023-04-27T03:45:22.616Z,13.25
2023-04-27T03:47:49.563Z,14.90
2023-04-27T03:50:16.509Z,26.52
2023-04-27T03:52:46.261Z,17.88
2023-04-27T03:55:16.548Z,15.13
2023-04-27T03:57:43.322Z,11.10
2023-04-27T04:00:20.719Z,12.70
2023-04-27T04:02:53.059Z,17.50
2023-04-27T04:05:21.232Z,12.90
2023-04-27T04:07:48.008Z,25.73
2023-04-27T04:10:14.805Z,16.70
2023-04-27T04:12:42.122Z,18.60
2023-04-27T04:15:13.975Z,15.00
2023-04-27T04:17:45.095Z,23.02
2023-04-27T04:20:12.187Z,26.52
2023-04-27T04:22:38.911Z,16.13
2023-04-27T04:25:30.933Z,21.30
2023-04-27T04:27:59.665Z,20.38
2023-04-27T04:30:26.526Z,21.52
2023-04-27T04:32:53.390Z,18.95
2023-04-27T04:35:20.191Z,21.20
2023-04-27T04:37:47.022Z,25.48
2023-04-27T04:40:14.227Z,19.00
2023-04-27T04:42:41.519Z,24.15
2023-04-27T04:45:08.463Z,32.08
2023-04-27T04:47:35.771Z,23.48
2023-04-27T04:50:04.187Z,25.70
2023-04-27T04:52:32.499Z,26.50
2023-04-27T04:54:59.281Z,24.08
2023-04-27T04:57:28.979Z,21.25
2023-04-27T04:59:58.186Z,17.65
2023-04-27T05:02:25.182Z,32.85
2023-04-27T05:04:52.614Z,34.95
2023-04-27T05:07:24.156Z,23.08
2023-04-27T05:09:52.075Z,17.70
2023-04-27T05:12:19.015Z,20.05
2023-04-27T05:14:46.264Z,27.55
2023-04-27T05:17:16.166Z,22.35
2023-04-27T05:19:43.119Z,20.13
2023-04-27T05:22:12.611Z,20.35
2023-04-27T05:24:42.292Z,18.98
2023-04-27T05:27:09.597Z,24.27
2023-04-27T05:29:36.660Z,24.88
2023-04-27T05:32:03.514Z,27.48
2023-04-27T05:34:30.328Z,25.13
2023-04-27T05:37:02.939Z,21.63
2023-04-27T05:39:29.575Z,20.55
2023-04-27T05:41:56.392Z,14.77
2023-04-27T05:44:25.446Z,25.58
2023-04-27T05:46:52.728Z,24.13
2023-04-27T05:49:19.776Z,25.60
2023-04-27T05:51:46.518Z,25.35
2023-04-27T05:54:13.356Z,27.23
2023-04-27T05:56:40.540Z,27.60
2023-04-27T05:59:07.240Z,31.85
2023-04-27T06:01:33.910Z,27.95
2023-04-27T06:04:01.951Z,26.75
2023-04-27T06:06:29.017Z,31.27
2023-04-27T06:08:56.146Z,31.23
2023-04-27T06:11:23.809Z,27.15
2023-04-27T06:13:50.491Z,28.42
2023-04-27T06:16:17.656Z,33.10
2023-04-27T06:18:44.865Z,35.67
2023-04-27T06:21:11.644Z,33.05
2023-04-27T06:23:38.366Z,30.63
2023-04-27T06:26:05.490Z,32.15
2023-04-27T06:28:32.121Z,28.25
2023-04-27T06:30:59.255Z,32.65
2023-04-27T06:33:26.689Z,29.73
2023-04-27T06:35:53.501Z,27.83
2023-04-27T06:38:20.531Z,28.33
2023-04-27T06:40:47.379Z,25.88
2023-04-27T06:43:23.028Z,33.78
2023-04-27T06:45:49.672Z,24.77
2023-04-27T06:48:17.148Z,28.73
2023-04-27T06:50:43.833Z,23.48
2023-04-27T06:53:11.183Z,28.17
2023-04-27T06:55:38.078Z,22.58
2023-04-27T06:58:04.693Z,22.15
2023-04-27T07:00:31.337Z,25.40
2023-04-27T07:02:58.578Z,25.40
2023-04-27T07:05:28.647Z,24.52
2023-04-27T07:07:55.633Z,28.98
2023-04-27T07:10:22.387Z,27.40
2023-04-27T07:12:49.132Z,24.67
2023-04-27T07:15:15.971Z,28.00
2023-04-27T07:17:42.741Z,25.60
2023-04-27T07:20:09.500Z,21.67
2023-04-27T07:22:36.475Z,23.20
2023-04-27T07:25:04.035Z,22.58
2023-04-27T07:27:32.177Z,19.40
2023-04-27T07:29:59.166Z,21.70
2023-04-27T07:32:26.357Z,20.38
2023-04-27T07:34:54.548Z,17.90
2023-04-27T07:37:21.752Z,26.73
2023-04-27T07:39:48.838Z,22.33
2023-04-27T07:42:16.294Z,18.45
2023-04-27T07:44:43.348Z,30.95
2023-04-27T07:47:11.104Z,19.08
2023-04-27T07:49:39.014Z,20.77
2023-04-27T07:52:06.215Z,25.45
2023-04-27T07:54:33.441Z,17.95
2023-04-27T07:57:00.393Z,14.48
2023-04-27T07:59:27.590Z,16.08
2023-04-27T08:02:04.125Z,16.08
2023-04-27T08:04:40.513Z,14.45
2023-04-27T08:07:08.812Z,14.77
2023-04-27T08:09:36.270Z,18.40
2023-04-27T08:12:03.288Z,14.85
2023-04-27T08:14:29.933Z,14.60
2023-04-27T08:16:56.902Z,25.20
2023-04-27T08:19:23.704Z,19.88
2023-04-27T08:21:50.398Z,18.20
2023-04-27T08:24:17.363Z,11.90
2023-04-27T08:26:44.393Z,22.63
2023-04-27T08:29:23.735Z,18.13
2023-04-27T08:31:56.766Z,14.98
2023-04-27T08:34:23.908Z,15.68
2023-04-27T08:36:50.579Z,11.75
2023-04-27T08:39:18.654Z,14.07
2023-04-27T08:41:45.746Z,13.30
2023-04-27T08:44:12.677Z,11.63
2023-04-27T08:46:39.763Z,10.95
2023-04-27T08:49:08.074Z,12.63
2023-04-27T08:51:35.376Z,16.13
2023-04-27T08:54:02.229Z,14.45
2023-04-27T08:56:29.040Z,12.20
2023-04-27T08:58:56.239Z,16.58
2023-04-27T09:01:23.748Z,15.25
2023-04-27T09:03:50.529Z,14.70
2023-04-27T09:06:17.611Z,9.05
2023-04-27T09:08:44.837Z,13.40
2023-04-27T09:11:11.860Z,15.65
2023-04-27T09:13:38.548Z,17.20
2023-04-27T09:16:05.342Z,40.22
2023-04-27T09:18:34.233Z,35.33
2023-04-27T09:21:01.333Z,22.67
2023-04-27T09:23:28.442Z,14.57
2023-04-27T09:25:56.764Z,16.35
2023-04-27T09:28:23.850Z,15.85
2023-04-27T09:30:50.797Z,22.17
2023-04-27T09:33:17.704Z,14.65
2023-04-27T09:35:44.570Z,11.38
2023-04-27T09:38:11.186Z,19.27
2023-04-27T09:40:40.409Z,21.63
2023-04-27T09:43:07.009Z,12.88
2023-04-27T09:45:33.793Z,11.00
2023-04-27T09:48:00.877Z,13.85
2023-04-27T09:50:27.795Z,13.40
2023-04-27T09:52:54.726Z,11.18
2023-04-27T09:55:21.710Z,14.70
2023-04-27T09:57:48.575Z,12.63
2023-04-27T10:00:16.380Z,12.10
2023-04-27T10:02:52.585Z,14.05
2023-04-27T10:05:21.595Z,15.43
2023-04-27T10:07:49.151Z,15.80
2023-04-27T10:10:16.760Z,16.80
2023-04-27T10:12:43.640Z,10.27
2023-04-27T10:15:10.764Z,11.10
2023-04-27T10:17:37.457Z,10.32
2023-04-27T10:20:04.494Z,9.73
2023-04-27T10:22:31.248Z,9.35
2023-04-27T10:24:58.131Z,13.75
2023-04-27T10:27:26.674Z,7.70
2023-04-27T10:29:53.987Z,10.13
2023-04-27T10:32:21.573Z,12.00
2023-04-27T10:34:49.173Z,7.55
2023-04-27T10:37:16.019Z,10.20
2023-04-27T10:39:48.061Z,8.25
2023-04-27T10:42:16.443Z,11.65
2023-04-27T10:44:43.128Z,12.05
2023-04-27T10:47:09.742Z,7.18
2023-04-27T10:49:36.296Z,12.27
2023-04-27T10:52:05.319Z,8.82
2023-04-27T10:54:32.131Z,10.73
2023-04-27T10:56:59.077Z,9.35
2023-04-27T10:59:25.894Z,11.18
2023-04-27T11:01:52.638Z,8.25
2023-04-27T11:04:19.423Z,8.15
2023-04-27T11:06:47.119Z,12.82
2023-04-27T11:09:13.888Z,6.22
2023-04-27T11:11:41.040Z,11.75
2023-04-27T11:14:08.289Z,10.40
2023-04-27T11:16:34.961Z,8.82
2023-04-27T11:19:01.747Z,6.95
2023-04-27T11:21:28.711Z,16.45
2023-04-27T11:23:55.480Z,14.98
2023-04-27T11:26:22.656Z,6.95
2023-04-27T11:28:50.012Z,6.03
2023-04-27T11:31:16.956Z,8.50
2023-04-27T11:33:44.060Z,12.85
2023-04-27T11:36:11.160Z,6.28
2023-04-27T11:38:38.150Z,11.15
2023-04-27T11:41:05.150Z,5.53
2023-04-27T11:43:31.894Z,5.75
2023-04-27T11:45:58.982Z,5.72
2023-04-27T11:48:25.799Z,5.55
2023-04-27T11:50:53.473Z,8.23
2023-04-27T11:53:20.118Z,10.85
2023-04-27T11:55:46.771Z,13.00
2023-04-27T11:58:14.068Z,9.27
2023-04-27T12:00:40.881Z,11.52
2023-04-27T12:03:10.988Z,8.45
2023-04-27T12:05:38.343Z,8.68
2023-04-27T12:08:05.051Z,7.03
2023-04-27T12:10:31.748Z,5.60
2023-04-27T12:13:01.567Z,16.20
2023-04-27T12:15:28.617Z,11.35
2023-04-27T12:17:55.642Z,7.78
2023-04-27T12:20:22.636Z,11.25
2023-04-27T12:22:49.217Z,8.80
2023-04-27T12:25:17.521Z,7.15
2023-04-27T12:27:47.430Z,6.60
2023-04-27T12:30:14.677Z,7.88
2023-04-27T12:32:41.377Z,5.18
2023-04-27T12:35:08.027Z,12.50
2023-04-27T12:37:34.632Z,7.15
2023-04-27T12:40:01.656Z,7.07
2023-04-27T12:42:28.214Z,7.03
2023-04-27T12:44:54.939Z,9.18
2023-04-27T12:47:43.135Z,14.98
2023-04-27T12:50:09.637Z,6.35
2023-04-27T12:52:36.534Z,8.30
2023-04-27T12:55:03.107Z,13.85
2023-04-27T12:57:29.738Z,10.23
2023-04-27T12:59:56.507Z,6.60
2023-04-27T13:02:23.262Z,8.02
2023-04-27T13:04:50.106Z,10.40
2023-04-27T13:07:17.085Z,7.22
2023-04-27T13:09:43.720Z,7.60
2023-04-27T13:12:10.460Z,7.38
2023-04-27T13:14:37.430Z,8.15
2023-04-27T13:17:04.305Z,11.73
2023-04-27T13:19:33.681Z,8.90
2023-04-27T13:22:00.339Z,8.98
2023-04-27T13:24:29.311Z,8.70
2023-04-27T13:26:56.152Z,11.30
2023-04-27T13:29:24.660Z,9.68
2023-04-27T13:31:51.427Z,6.53
2023-04-27T13:34:18.933Z,8.32
2023-04-27T13:36:46.439Z,5.90
2023-04-27T13:39:14.418Z,7.53
2023-04-27T13:41:41.085Z,10.68
2023-04-27T13:44:07.778Z,12.80
2023-04-27T13:46:34.596Z,7.20
2023-04-27T13:49:01.308Z,12.70
2023-04-27T13:51:28.159Z,7.65
2023-04-27T13:53:54.804Z,11.38
2023-04-27T13:56:21.764Z,7.93
2023-04-27T13:58:48.417Z,11.50
2023-04-27T14:01:15.019Z,7.78
2023-04-27T14:03:43.481Z,6.93
2023-04-27T14:06:10.511Z,7.80
2023-04-27T14:08:37.122Z,12.02
2023-04-27T14:11:04.040Z,15.07
2023-04-27T14:13:30.741Z,10.60
2023-04-27T14:15:57.377Z,9.63
2023-04-27T14:18:31.755Z,10.48
2023-04-27T14:20:59.126Z,9.68
2023-04-27T14:23:25.735Z,10.35
2023-04-27T14:25:52.313Z,10.25
2023-04-27T14:28:18.970Z,8.50
2023-04-27T14:30:45.668Z,11.07
2023-04-27T14:33:12.484Z,9.02
2023-04-27T14:35:39.216Z,9.10
2023-04-27T14:38:05.870Z,11.18
2023-04-27T14:40:32.518Z,8.52
2023-04-27T14:42:59.145Z,11.18
2023-04-27T14:45:28.976Z,9.40
2023-04-27T14:48:00.871Z,12.55
2023-04-27T14:50:27.608Z,11.05
2023-04-27T14:52:58.020Z,13.02
2023-04-27T14:55:25.074Z,16.40
2023-04-27T14:57:51.681Z,20.85
2023-04-27T15:00:18.375Z,9.98
2023-04-27T15:02:45.032Z,8.77
2023-04-27T15:05:11.855Z,10.23
2023-04-27T15:07:38.571Z,10.95
2023-04-27T15:10:05.446Z,10.32
2023-04-27T15:12:32.167Z,14.43
2023-04-27T15:14:58.771Z,11.90
2023-04-27T15:17:25.418Z,11.70
2023-04-27T15:19:52.140Z,8.23
2023-04-27T15:22:18.747Z,10.88
2023-04-27T15:24:45.460Z,15.95
2023-04-27T15:27:12.036Z,11.35
2023-04-27T15:29:38.669Z,10.70
2023-04-27T15:32:05.310Z,11.15
2023-04-27T15:34:31.959Z,13.18
2023-04-27T15:36:58.745Z,9.98
2023-04-27T15:39:25.368Z,13.98
2023-04-27T15:41:52.036Z,13.35
2023-04-27T15:44:18.715Z,16.75
2023-04-27T15:46:45.466Z,13.20
2023-04-27T15:49:13.116Z,10.25
2023-04-27T15:51:39.905Z,16.17
2023-04-27T15:54:06.631Z,13.10
2023-04-27T15:56:33.295Z,14.20
2023-04-27T15:58:59.893Z,16.02
2023-04-27T16:01:26.584Z,19.60
2023-04-27T16:03:53.455Z,12.20
2023-04-27T16:06:20.138Z,14.38
2023-04-27T16:08:46.829Z,19.90
2023-04-27T16:11:14.181Z,16.02
2023-04-27T16:13:40.978Z,13.63
2023-04-27T16:16:07.734Z,11.60
2023-04-27T16:18:35.272Z,12.32
2023-04-27T16:21:01.948Z,13.68
2023-04-27T16:23:28.774Z,16.83
2023-04-27T16:25:55.461Z,17.48
2023-04-27T16:28:22.213Z,14.95
2023-04-27T16:30:49.362Z,15.40
2023-04-27T16:33:16.327Z,12.70
2023-04-27T16:35:43.082Z,15.43
2023-04-27T16:38:09.768Z,18.20
2023-04-27T16:40:36.569Z,13.00
2023-04-27T16:43:03.462Z,17.10
2023-04-27T16:45:30.119Z,17.20
2023-04-27T16:47:57.179Z,17.00
2023-04-27T16:50:24.025Z,17.45
2023-04-27T16:52:50.918Z,24.25
2023-04-27T16:55:17.529Z,20.08
2023-04-27T16:57:46.420Z,22.17
2023-04-27T17:00:13.168Z,20.05
2023-04-27T17:02:43.138Z,16.52
2023-04-27T17:05:10.699Z,20.92
2023-04-27T17:07:37.566Z,23.58
2023-04-27T17:10:05.846Z,16.60
2023-04-27T17:12:32.492Z,24.67
2023-04-27T17:14:59.157Z,16.83
2023-04-27T17:17:26.017Z,20.23
2023-04-27T17:19:52.796Z,18.30
2023-04-27T17:22:19.520Z,19.17
2023-04-27T17:24:46.660Z,20.63
2023-04-27T17:27:13.445Z,24.90
2023-04-27T17:29:40.187Z,23.98
2023-04-27T17:32:06.882Z,20.83
2023-04-27T17:34:33.678Z,23.40
2023-04-27T17:37:00.604Z,24.48
2023-04-27T17:39:27.296Z,20.85
2023-04-27T17:41:54.491Z,21.48
2023-04-27T17:44:23.472Z,22.15
2023-04-27T17:46:50.188Z,20.92
2023-04-27T17:49:17.156Z,21.25
2023-04-27T17:51:44.031Z,20.45
2023-04-27T17:54:11.644Z,19.10
2023-04-27T17:56:38.406Z,28.83
2023-04-27T17:59:05.062Z,23.10
2023-04-27T18:01:31.996Z,21.42
2023-04-27T18:04:01.273Z,24.33
2023-04-27T18:06:32.132Z,18.88
2023-04-27T18:08:58.808Z,27.45
2023-04-27T18:11:25.856Z,33.50
2023-04-27T18:13:52.676Z,23.63
2023-04-27T18:16:19.443Z,28.52
2023-04-27T18:18:46.075Z,24.10
2023-04-27T18:21:12.710Z,26.80
2023-04-27T18:23:42.794Z,21.40
2023-04-27T18:26:11.543Z,19.02
2023-04-27T18:28:40.275Z,23.10
2023-04-27T18:31:07.018Z,20.33
2023-04-27T18:33:36.176Z,20.95
2023-04-27T18:36:02.849Z,29.80
2023-04-27T18:38:32.775Z,26.15
2023-04-27T18:40:59.728Z,19.27
2023-04-27T18:43:26.468Z,22.17
2023-04-27T18:45:53.248Z,25.25
2023-04-27T18:48:20.221Z,25.67
2023-04-27T18:50:57.198Z,23.92
2023-04-27T18:53:26.844Z,22.52
2023-04-27T18:55:53.633Z,29.73
2023-04-27T18:58:20.485Z,22.27
2023-04-27T19:00:47.158Z,20.90
2023-04-27T19:03:14.430Z,18.00
2023-04-27T19:05:43.163Z,19.33
2023-04-27T19:08:10.247Z,19.75
2023-04-27T19:10:37.139Z,18.23
2023-04-27T19:13:04.035Z,20.35
2023-04-27T19:15:30.903Z,21.48
2023-04-27T19:18:03.074Z,23.40
2023-04-27T19:20:36.958Z,25.48
2023-04-27T19:23:05.285Z,19.70
2023-04-27T19:25:32.148Z,23.38
2023-04-27T19:28:01.306Z,21.35
2023-04-27T19:30:27.990Z,21.77
2023-04-27T19:32:54.729Z,30.77
2023-04-27T19:35:25.284Z,26.10
2023-04-27T19:37:52.093Z,26.08
2023-04-27T19:40:18.954Z,27.45
2023-04-27T19:42:45.952Z,26.83
2023-04-27T19:45:12.667Z,23.05
2023-04-27T19:47:39.447Z,22.77
2023-04-27T19:50:06.296Z,24.15
2023-04-27T19:52:33.096Z,30.98
2023-04-27T19:55:00.129Z,27.30
2023-04-27T19:57:26.963Z,27.67
2023-04-27T19:59:53.673Z,30.77
2023-04-27T20:02:20.510Z,25.23
2023-04-27T20:04:47.760Z,36.78
2023-04-27T20:07:14.577Z,30.02
2023-04-27T20:09:43.863Z,26.38
2023-04-27T20:12:23.702Z,27.23
2023-04-27T20:14:57.276Z,28.58
2023-04-27T20:17:26.644Z,24.45
2023-04-27T20:19:56.537Z,23.85
2023-04-27T20:22:23.417Z,23.38
2023-04-27T20:24:51.288Z,24.02
2023-04-27T20:27:18.060Z,28.13
2023-04-27T20:29:46.644Z,29.23
2023-04-27T20:32:13.389Z,23.20
2023-04-27T20:34:40.086Z,25.38
2023-04-27T20:37:07.710Z,22.20
2023-04-27T20:39:35.055Z,24.67
2023-04-27T20:42:01.787Z,23.00
2023-04-27T20:44:28.490Z,24.00
2023-04-27T20:46:55.151Z,18.33
2023-04-27T20:49:31.926Z,19.15
2023-04-27T20:52:02.389Z,19.67
2023-04-27T20:54:31.138Z,16.92
2023-04-27T20:56:58.142Z,20.05
2023-04-27T20:59:24.817Z,14.23
2023-04-27T21:01:51.585Z,15.63
2023-04-27T21:04:21.416Z,17.52
2023-04-27T21:06:48.163Z,13.05
2023-04-27T21:09:14.923Z,12.85
2023-04-27T21:11:41.717Z,14.88
2023-04-27T21:14:08.504Z,13.35
2023-04-27T21:16:35.152Z,12.43
2023-04-27T21:19:01.908Z,13.25
2023-04-27T21:21:28.632Z,10.32
2023-04-27T21:24:06.707Z,10.65
2023-04-27T21:26:34.492Z,14.02
2023-04-27T21:29:01.574Z,10.10
2023-04-27T21:31:28.555Z,11.30
2023-04-27T21:33:55.413Z,7.88
2023-04-27T21:36:22.163Z,9.07
2023-04-27T21:38:48.796Z,7.75
2023-04-27T21:41:16.727Z,6.65
2023-04-27T21:43:43.513Z,6.70
2023-04-27T21:46:10.257Z,8.15
2023-04-27T21:48:36.938Z,10.00
2023-04-27T21:51:03.611Z,7.72
2023-04-27T21:53:30.610Z,6.90
2023-04-27T21:55:57.309Z,7.80
2023-04-27T21:58:24.378Z,6.75
2023-04-27T22:00:51.137Z,6.57
2023-04-27T22:03:17.905Z,6.95
2023-04-27T22:05:45.623Z,6.22
2023-04-27T22:08:13.244Z,7.30
2023-04-27T22:10:39.979Z,4.32
2023-04-27T22:13:17.724Z,7.60
2023-04-27T22:15:46.174Z,4.60
2023-04-27T22:18:14.445Z,5.50
2023-04-27T22:20:41.206Z,7.63
2023-04-27T22:23:07.943Z,6.25
2023-04-27T22:25:34.532Z,6.47
2023-04-27T22:28:01.694Z,5.88
2023-04-27T22:30:28.680Z,5.25
2023-04-27T22:32:55.367Z,6.57
2023-04-27T22:35:26.952Z,6.03
2023-04-27T22:37:54.467Z,10.45
2023-04-27T22:40:21.383Z,5.80
2023-04-27T22:42:48.053Z,6.38
2023-04-27T22:45:14.650Z,8.82
2023-04-27T22:47:41.633Z,5.43
2023-04-27T22:50:08.321Z,5.22
2023-04-27T22:52:35.000Z,5.55
2023-04-27T22:55:02.322Z,5.70
2023-04-27T22:57:29.120Z,4.50
2023-04-27T22:59:55.777Z,5.38
2023-04-27T23:02:22.838Z,6.47
2023-04-27T23:04:49.719Z,5.47
2023-04-27T23:07:19.402Z,6.10
2023-04-27T23:09:48.292Z,5.28
2023-04-27T23:12:15.050Z,4.85
2023-04-27T23:14:42.410Z,7.88
2023-04-27T23:17:09.138Z,3.75
2023-04-27T23:19:35.803Z,4.72
2023-04-27T23:22:02.420Z,3.95
2023-04-27T23:24:29.256Z,5.47
2023-04-27T23:26:56.127Z,4.18
2023-04-27T23:29:23.480Z,4.88
2023-04-27T23:31:50.144Z,9.88
2023-04-27T23:34:21.538Z,6.03
2023-04-27T23:36:48.194Z,4.53
2023-04-27T23:39:14.921Z,5.32
2023-04-27T23:41:41.646Z,4.53
2023-04-27T23:44:08.480Z,4.07
2023-04-27T23:46:35.282Z,5.53
2023-04-27T23:49:02.001Z,3.42
2023-04-27T23:51:28.637Z,3.30
2023-04-27T23:53:55.477Z,3.97
2023-04-27T23:56:23.137Z,4.93
2023-04-27T23:58:49.850Z,4.85
